sensor_id;sensor_type;location;lat;lon;timestamp;P1;durP1;ratioP1;P2;durP2;ratioP2
49688;SDS011;70518;51.400;7.428;2023-07-29T00:00:40;10.07;;;3.92;;
49688;SDS011;70518;51.400;7.428;2023-07-29T00:03:05;7.28;;;3.63;;
49688;SDS011;70518;51.400;7.428;2023-07-29T00:05:31;5.78;;;2.35;;
49688;SDS011;70518;51.400;7.428;2023-07-29T00:07:56;5.57;;;2.97;;
49688;SDS011;70518;51.400;7.428;2023-07-29T00:10:21;7.50;;;3.33;;
49688;SDS011;70518;51.400;7.428;2023-07-29T00:12:47;2.88;;;1.73;;
49688;SDS011;70518;51.400;7.428;2023-07-29T00:15:12;6.47;;;2.85;;
49688;SDS011;70518;51.400;7.428;2023-07-29T00:17:37;3.85;;;2.15;;
49688;SDS011;70518;51.400;7.428;2023-07-29T00:20:03;4.88;;;1.80;;
49688;SDS011;70518;51.400;7.428;2023-07-29T00:22:30;3.88;;;1.67;;
49688;SDS011;70518;51.400;7.428;2023-07-29T00:24:55;5.35;;;2.33;;
49688;SDS011;70518;51.400;7.428;2023-07-29T00:27:22;3.33;;;1.58;;
49688;SDS011;70518;51.400;7.428;2023-07-29T00:29:47;3.05;;;1.40;;
49688;SDS011;70518;51.400;7.428;2023-07-29T00:32:13;1.95;;;1.65;;
49688;SDS011;70518;51.400;7.428;2023-07-29T00:34:38;2.88;;;1.52;;
49688;SDS011;70518;51.400;7.428;2023-07-29T00:37:03;4.15;;;1.52;;
49688;SDS011;70518;51.400;7.428;2023-07-29T00:39:30;2.10;;;1.45;;
49688;SDS011;70518;51.400;7.428;2023-07-29T00:41:56;4.13;;;1.92;;
49688;SDS011;70518;51.400;7.428;2023-07-29T00:44:21;4.60;;;1.73;;
49688;SDS011;70518;51.400;7.428;2023-07-29T00:46:46;4.22;;;2.10;;
49688;SDS011;70518;51.400;7.428;2023-07-29T00:49:14;4.32;;;2.03;;
49688;SDS011;70518;51.400;7.428;2023-07-29T00:51:40;3.70;;;2.10;;
49688;SDS011;70518;51.400;7.428;2023-07-29T00:54:05;4.95;;;2.03;;
49688;SDS011;70518;51.400;7.428;2023-07-29T00:56:30;3.25;;;2.13;;
49688;SDS011;70518;51.400;7.428;2023-07-29T00:58:56;3.25;;;1.50;;
49688;SDS011;70518;51.400;7.428;2023-07-29T01:01:25;2.90;;;1.52;;
49688;SDS011;70518;51.400;7.428;2023-07-29T01:03:50;4.53;;;1.92;;
49688;SDS011;70518;51.400;7.428;2023-07-29T01:06:18;2.78;;;2.17;;
49688;SDS011;70518;51.400;7.428;2023-07-29T01:09:08;2.00;;;1.80;;
49688;SDS011;70518;51.400;7.428;2023-07-29T01:11:45;1.75;;;1.42;;
49688;SDS011;70518;51.400;7.428;2023-07-29T01:14:34;3.85;;;2.10;;
49688;SDS011;70518;51.400;7.428;2023-07-29T01:17:07;4.85;;;2.05;;
49688;SDS011;70518;51.400;7.428;2023-07-29T01:22:26;2.78;;;1.80;;
49688;SDS011;70518;51.400;7.428;2023-07-29T01:24:52;2.05;;;1.63;;
49688;SDS011;70518;51.400;7.428;2023-07-29T01:27:18;1.48;;;1.38;;
49688;SDS011;70518;51.400;7.428;2023-07-29T01:29:43;2.53;;;1.58;;
49688;SDS011;70518;51.400;7.428;2023-07-29T01:32:13;2.10;;;1.10;;
49688;SDS011;70518;51.400;7.428;2023-07-29T01:34:47;2.97;;;1.60;;
49688;SDS011;70518;51.400;7.428;2023-07-29T01:37:19;10.80;;;2.30;;
49688;SDS011;70518;51.400;7.428;2023-07-29T01:39:49;2.42;;;1.20;;
49688;SDS011;70518;51.400;7.428;2023-07-29T01:42:15;1.67;;;1.50;;
49688;SDS011;70518;51.400;7.428;2023-07-29T01:44:41;3.10;;;1.63;;
49688;SDS011;70518;51.400;7.428;2023-07-29T01:47:07;1.83;;;1.33;;
49688;SDS011;70518;51.400;7.428;2023-07-29T01:49:33;2.33;;;1.90;;
49688;SDS011;70518;51.400;7.428;2023-07-29T01:51:58;2.45;;;1.73;;
49688;SDS011;70518;51.400;7.428;2023-07-29T01:54:23;2.55;;;1.40;;
49688;SDS011;70518;51.400;7.428;2023-07-29T01:56:49;2.20;;;1.00;;
49688;SDS011;70518;51.400;7.428;2023-07-29T01:59:16;2.25;;;1.52;;
49688;SDS011;70518;51.400;7.428;2023-07-29T02:01:41;1.83;;;1.40;;
49688;SDS011;70518;51.400;7.428;2023-07-29T02:04:07;2.17;;;1.10;;
49688;SDS011;70518;51.400;7.428;2023-07-29T02:06:33;2.88;;;1.63;;
49688;SDS011;70518;51.400;7.428;2023-07-29T02:08:58;4.43;;;1.23;;
49688;SDS011;70518;51.400;7.428;2023-07-29T02:11:23;2.00;;;1.20;;
49688;SDS011;70518;51.400;7.428;2023-07-29T02:13:52;3.58;;;1.40;;
49688;SDS011;70518;51.400;7.428;2023-07-29T02:16:23;3.22;;;1.55;;
49688;SDS011;70518;51.400;7.428;2023-07-29T02:18:48;2.38;;;1.95;;
49688;SDS011;70518;51.400;7.428;2023-07-29T02:21:15;2.78;;;1.83;;
49688;SDS011;70518;51.400;7.428;2023-07-29T02:23:40;2.10;;;1.80;;
49688;SDS011;70518;51.400;7.428;2023-07-29T02:26:06;1.92;;;1.40;;
49688;SDS011;70518;51.400;7.428;2023-07-29T02:28:31;3.25;;;1.60;;
49688;SDS011;70518;51.400;7.428;2023-07-29T02:31:14;4.22;;;1.52;;
49688;SDS011;70518;51.400;7.428;2023-07-29T02:33:46;1.88;;;1.67;;
49688;SDS011;70518;51.400;7.428;2023-07-29T02:36:12;1.20;;;1.10;;
49688;SDS011;70518;51.400;7.428;2023-07-29T02:38:38;4.15;;;1.60;;
49688;SDS011;70518;51.400;7.428;2023-07-29T02:41:04;1.70;;;1.60;;
49688;SDS011;70518;51.400;7.428;2023-07-29T02:43:29;3.42;;;1.20;;
49688;SDS011;70518;51.400;7.428;2023-07-29T02:45:54;1.52;;;1.23;;
49688;SDS011;70518;51.400;7.428;2023-07-29T02:48:20;2.15;;;1.35;;
49688;SDS011;70518;51.400;7.428;2023-07-29T02:50:45;3.90;;;1.35;;
49688;SDS011;70518;51.400;7.428;2023-07-29T02:53:10;3.15;;;1.55;;
49688;SDS011;70518;51.400;7.428;2023-07-29T02:55:39;3.45;;;1.00;;
49688;SDS011;70518;51.400;7.428;2023-07-29T02:58:04;1.40;;;1.30;;
49688;SDS011;70518;51.400;7.428;2023-07-29T03:00:31;1.75;;;1.50;;
49688;SDS011;70518;51.400;7.428;2023-07-29T03:02:56;2.60;;;1.30;;
49688;SDS011;70518;51.400;7.428;2023-07-29T03:05:21;2.60;;;1.20;;
49688;SDS011;70518;51.400;7.428;2023-07-29T03:07:47;4.10;;;1.40;;
49688;SDS011;70518;51.400;7.428;2023-07-29T03:10:12;2.53;;;1.58;;
49688;SDS011;70518;51.400;7.428;2023-07-29T03:12:39;3.10;;;1.48;;
49688;SDS011;70518;51.400;7.428;2023-07-29T03:15:04;2.03;;;1.15;;
49688;SDS011;70518;51.400;7.428;2023-07-29T03:17:30;3.25;;;1.42;;
49688;SDS011;70518;51.400;7.428;2023-07-29T03:19:55;2.45;;;1.08;;
49688;SDS011;70518;51.400;7.428;2023-07-29T03:22:21;2.70;;;1.20;;
49688;SDS011;70518;51.400;7.428;2023-07-29T03:24:46;2.15;;;1.10;;
49688;SDS011;70518;51.400;7.428;2023-07-29T03:27:11;1.95;;;1.40;;
49688;SDS011;70518;51.400;7.428;2023-07-29T03:29:37;1.30;;;1.20;;
49688;SDS011;70518;51.400;7.428;2023-07-29T03:32:02;1.55;;;1.00;;
49688;SDS011;70518;51.400;7.428;2023-07-29T03:34:28;1.88;;;1.05;;
49688;SDS011;70518;51.400;7.428;2023-07-29T03:36:53;3.25;;;1.33;;
49688;SDS011;70518;51.400;7.428;2023-07-29T03:39:19;4.63;;;1.45;;
49688;SDS011;70518;51.400;7.428;2023-07-29T03:41:44;2.28;;;1.20;;
49688;SDS011;70518;51.400;7.428;2023-07-29T03:44:09;4.45;;;1.20;;
49688;SDS011;70518;51.400;7.428;2023-07-29T03:46:35;2.75;;;1.30;;
49688;SDS011;70518;51.400;7.428;2023-07-29T03:49:00;3.38;;;1.38;;
49688;SDS011;70518;51.400;7.428;2023-07-29T03:51:25;1.80;;;1.30;;
49688;SDS011;70518;51.400;7.428;2023-07-29T03:53:51;2.38;;;1.30;;
49688;SDS011;70518;51.400;7.428;2023-07-29T03:56:16;4.28;;;1.45;;
49688;SDS011;70518;51.400;7.428;2023-07-29T03:58:42;2.38;;;1.33;;
49688;SDS011;70518;51.400;7.428;2023-07-29T04:01:08;3.33;;;1.92;;
49688;SDS011;70518;51.400;7.428;2023-07-29T04:03:34;2.33;;;2.13;;
49688;SDS011;70518;51.400;7.428;2023-07-29T04:05:59;2.28;;;1.45;;
49688;SDS011;70518;51.400;7.428;2023-07-29T04:08:25;2.00;;;1.40;;
49688;SDS011;70518;51.400;7.428;2023-07-29T04:10:50;1.98;;;1.30;;
49688;SDS011;70518;51.400;7.428;2023-07-29T04:13:16;2.40;;;1.63;;
49688;SDS011;70518;51.400;7.428;2023-07-29T04:15:41;4.38;;;1.42;;
49688;SDS011;70518;51.400;7.428;2023-07-29T04:18:06;4.22;;;1.70;;
49688;SDS011;70518;51.400;7.428;2023-07-29T04:20:32;2.58;;;1.45;;
49688;SDS011;70518;51.400;7.428;2023-07-29T04:22:58;2.80;;;1.50;;
49688;SDS011;70518;51.400;7.428;2023-07-29T04:25:24;2.13;;;1.83;;
49688;SDS011;70518;51.400;7.428;2023-07-29T04:27:49;2.80;;;1.90;;
49688;SDS011;70518;51.400;7.428;2023-07-29T04:30:14;2.28;;;2.08;;
49688;SDS011;70518;51.400;7.428;2023-07-29T04:32:40;2.85;;;2.33;;
49688;SDS011;70518;51.400;7.428;2023-07-29T04:35:07;2.85;;;2.40;;
49688;SDS011;70518;51.400;7.428;2023-07-29T04:37:35;2.80;;;2.05;;
49688;SDS011;70518;51.400;7.428;2023-07-29T04:40:01;2.67;;;2.40;;
49688;SDS011;70518;51.400;7.428;2023-07-29T04:42:27;2.75;;;2.17;;
49688;SDS011;70518;51.400;7.428;2023-07-29T04:44:52;3.35;;;2.63;;
49688;SDS011;70518;51.400;7.428;2023-07-29T04:47:17;4.13;;;2.17;;
49688;SDS011;70518;51.400;7.428;2023-07-29T04:49:43;7.13;;;2.92;;
49688;SDS011;70518;51.400;7.428;2023-07-29T04:52:10;3.00;;;2.65;;
49688;SDS011;70518;51.400;7.428;2023-07-29T04:54:36;4.40;;;2.72;;
49688;SDS011;70518;51.400;7.428;2023-07-29T04:57:01;4.85;;;2.55;;
49688;SDS011;70518;51.400;7.428;2023-07-29T04:59:26;6.60;;;2.80;;
49688;SDS011;70518;51.400;7.428;2023-07-29T05:01:52;3.13;;;2.83;;
49688;SDS011;70518;51.400;7.428;2023-07-29T05:04:17;3.83;;;3.05;;
49688;SDS011;70518;51.400;7.428;2023-07-29T05:06:42;4.07;;;3.05;;
49688;SDS011;70518;51.400;7.428;2023-07-29T05:09:14;3.88;;;2.83;;
49688;SDS011;70518;51.400;7.428;2023-07-29T05:11:43;4.15;;;3.03;;
49688;SDS011;70518;51.400;7.428;2023-07-29T05:14:10;3.72;;;3.28;;
49688;SDS011;70518;51.400;7.428;2023-07-29T05:16:36;5.43;;;4.93;;
49688;SDS011;70518;51.400;7.428;2023-07-29T05:19:01;6.03;;;5.35;;
49688;SDS011;70518;51.400;7.428;2023-07-29T05:21:27;5.93;;;5.35;;
49688;SDS011;70518;51.400;7.428;2023-07-29T05:23:52;5.88;;;5.15;;
49688;SDS011;70518;51.400;7.428;2023-07-29T05:26:17;5.15;;;4.72;;
49688;SDS011;70518;51.400;7.428;2023-07-29T05:28:43;5.28;;;4.82;;
49688;SDS011;70518;51.400;7.428;2023-07-29T05:31:08;5.20;;;4.60;;
49688;SDS011;70518;51.400;7.428;2023-07-29T05:33:34;6.22;;;3.95;;
49688;SDS011;70518;51.400;7.428;2023-07-29T05:36:01;4.05;;;2.60;;
49688;SDS011;70518;51.400;7.428;2023-07-29T05:38:26;3.92;;;3.47;;
49688;SDS011;70518;51.400;7.428;2023-07-29T05:40:52;3.90;;;3.03;;
49688;SDS011;70518;51.400;7.428;2023-07-29T05:43:17;4.00;;;3.30;;
49688;SDS011;70518;51.400;7.428;2023-07-29T05:45:42;5.97;;;3.33;;
49688;SDS011;70518;51.400;7.428;2023-07-29T05:48:07;3.92;;;3.50;;
49688;SDS011;70518;51.400;7.428;2023-07-29T05:50:33;3.10;;;2.85;;
49688;SDS011;70518;51.400;7.428;2023-07-29T05:52:58;4.30;;;3.40;;
49688;SDS011;70518;51.400;7.428;2023-07-29T05:55:23;4.30;;;2.28;;
49688;SDS011;70518;51.400;7.428;2023-07-29T05:57:49;4.20;;;2.17;;
49688;SDS011;70518;51.400;7.428;2023-07-29T06:00:14;3.00;;;1.83;;
49688;SDS011;70518;51.400;7.428;2023-07-29T06:02:40;4.85;;;2.15;;
49688;SDS011;70518;51.400;7.428;2023-07-29T06:05:06;6.03;;;2.03;;
49688;SDS011;70518;51.400;7.428;2023-07-29T06:07:32;3.58;;;1.90;;
49688;SDS011;70518;51.400;7.428;2023-07-29T06:09:58;4.03;;;1.77;;
49688;SDS011;70518;51.400;7.428;2023-07-29T06:12:24;3.65;;;1.63;;
49688;SDS011;70518;51.400;7.428;2023-07-29T06:14:49;1.50;;;1.30;;
49688;SDS011;70518;51.400;7.428;2023-07-29T06:17:15;3.17;;;1.65;;
49688;SDS011;70518;51.400;7.428;2023-07-29T06:19:40;2.42;;;1.30;;
49688;SDS011;70518;51.400;7.428;2023-07-29T06:22:05;2.05;;;1.05;;
49688;SDS011;70518;51.400;7.428;2023-07-29T06:24:30;2.17;;;1.30;;
49688;SDS011;70518;51.400;7.428;2023-07-29T06:26:56;2.80;;;1.38;;
49688;SDS011;70518;51.400;7.428;2023-07-29T06:29:21;2.38;;;1.00;;
49688;SDS011;70518;51.400;7.428;2023-07-29T06:31:47;1.63;;;1.15;;
49688;SDS011;70518;51.400;7.428;2023-07-29T06:34:12;2.33;;;1.23;;
49688;SDS011;70518;51.400;7.428;2023-07-29T06:36:37;3.38;;;1.02;;
49688;SDS011;70518;51.400;7.428;2023-07-29T06:39:02;2.55;;;0.80;;
49688;SDS011;70518;51.400;7.428;2023-07-29T06:41:28;2.22;;;0.90;;
49688;SDS011;70518;51.400;7.428;2023-07-29T06:43:53;3.28;;;0.90;;
49688;SDS011;70518;51.400;7.428;2023-07-29T06:46:18;3.47;;;1.00;;
49688;SDS011;70518;51.400;7.428;2023-07-29T06:48:44;3.60;;;1.00;;
49688;SDS011;70518;51.400;7.428;2023-07-29T06:51:09;2.92;;;0.98;;
49688;SDS011;70518;51.400;7.428;2023-07-29T06:53:35;2.35;;;1.10;;
49688;SDS011;70518;51.400;7.428;2023-07-29T06:56:00;3.63;;;0.90;;
49688;SDS011;70518;51.400;7.428;2023-07-29T06:58:26;2.40;;;0.70;;
49688;SDS011;70518;51.400;7.428;2023-07-29T07:00:51;2.38;;;0.57;;
49688;SDS011;70518;51.400;7.428;2023-07-29T07:03:16;1.60;;;0.60;;
49688;SDS011;70518;51.400;7.428;2023-07-29T07:05:41;1.73;;;0.50;;
49688;SDS011;70518;51.400;7.428;2023-07-29T07:08:07;0.75;;;0.60;;
49688;SDS011;70518;51.400;7.428;2023-07-29T07:10:32;0.65;;;0.40;;
49688;SDS011;70518;51.400;7.428;2023-07-29T07:12:58;1.33;;;0.52;;
49688;SDS011;70518;51.400;7.428;2023-07-29T07:15:24;1.25;;;0.40;;
49688;SDS011;70518;51.400;7.428;2023-07-29T07:17:50;0.90;;;0.40;;
49688;SDS011;70518;51.400;7.428;2023-07-29T07:20:16;0.95;;;0.50;;
49688;SDS011;70518;51.400;7.428;2023-07-29T07:22:41;1.17;;;0.52;;
49688;SDS011;70518;51.400;7.428;2023-07-29T07:25:07;0.60;;;0.43;;
49688;SDS011;70518;51.400;7.428;2023-07-29T07:27:32;1.10;;;0.40;;
49688;SDS011;70518;51.400;7.428;2023-07-29T07:29:58;1.67;;;0.50;;
49688;SDS011;70518;51.400;7.428;2023-07-29T07:32:23;0.90;;;0.50;;
49688;SDS011;70518;51.400;7.428;2023-07-29T07:34:48;1.30;;;0.40;;
49688;SDS011;70518;51.400;7.428;2023-07-29T07:37:14;2.00;;;1.05;;
49688;SDS011;70518;51.400;7.428;2023-07-29T07:39:39;17.88;;;7.90;;
49688;SDS011;70518;51.400;7.428;2023-07-29T07:42:05;41.80;;;18.17;;
49688;SDS011;70518;51.400;7.428;2023-07-29T07:44:30;53.83;;;22.58;;
49688;SDS011;70518;51.400;7.428;2023-07-29T07:46:55;15.38;;;6.93;;
49688;SDS011;70518;51.400;7.428;2023-07-29T07:49:21;25.00;;;10.40;;
49688;SDS011;70518;51.400;7.428;2023-07-29T07:51:47;22.50;;;9.23;;
49688;SDS011;70518;51.400;7.428;2023-07-29T07:54:12;12.45;;;5.47;;
49688;SDS011;70518;51.400;7.428;2023-07-29T07:56:37;31.83;;;14.00;;
49688;SDS011;70518;51.400;7.428;2023-07-29T07:59:02;9.35;;;4.40;;
49688;SDS011;70518;51.400;7.428;2023-07-29T08:01:28;12.00;;;3.85;;
49688;SDS011;70518;51.400;7.428;2023-07-29T08:03:59;11.70;;;4.75;;
49688;SDS011;70518;51.400;7.428;2023-07-29T08:06:24;12.27;;;5.18;;
49688;SDS011;70518;51.400;7.428;2023-07-29T08:08:50;11.45;;;5.43;;
49688;SDS011;70518;51.400;7.428;2023-07-29T08:11:15;16.17;;;5.07;;
49688;SDS011;70518;51.400;7.428;2023-07-29T08:13:40;12.88;;;5.07;;
49688;SDS011;70518;51.400;7.428;2023-07-29T08:16:05;5.93;;;2.08;;
49688;SDS011;70518;51.400;7.428;2023-07-29T08:18:31;4.35;;;1.70;;
49688;SDS011;70518;51.400;7.428;2023-07-29T08:20:57;6.25;;;1.98;;
49688;SDS011;70518;51.400;7.428;2023-07-29T08:23:24;4.85;;;2.05;;
49688;SDS011;70518;51.400;7.428;2023-07-29T08:25:56;5.88;;;2.00;;
49688;SDS011;70518;51.400;7.428;2023-07-29T08:28:26;4.68;;;1.70;;
49688;SDS011;70518;51.400;7.428;2023-07-29T08:31:02;5.28;;;2.13;;
49688;SDS011;70518;51.400;7.428;2023-07-29T08:33:27;2.92;;;1.42;;
49688;SDS011;70518;51.400;7.428;2023-07-29T08:35:53;2.35;;;0.68;;
49688;SDS011;70518;51.400;7.428;2023-07-29T08:38:19;2.92;;;0.70;;
49688;SDS011;70518;51.400;7.428;2023-07-29T08:40:57;2.20;;;0.60;;
49688;SDS011;70518;51.400;7.428;2023-07-29T08:43:29;4.85;;;0.60;;
49688;SDS011;70518;51.400;7.428;2023-07-29T08:46:00;2.95;;;0.90;;
49688;SDS011;70518;51.400;7.428;2023-07-29T08:48:44;3.22;;;1.20;;
49688;SDS011;70518;51.400;7.428;2023-07-29T08:51:11;4.10;;;1.00;;
49688;SDS011;70518;51.400;7.428;2023-07-29T08:53:37;2.25;;;0.60;;
49688;SDS011;70518;51.400;7.428;2023-07-29T08:56:04;2.60;;;0.82;;
49688;SDS011;70518;51.400;7.428;2023-07-29T08:58:30;2.38;;;0.70;;
49688;SDS011;70518;51.400;7.428;2023-07-29T09:00:56;1.45;;;0.40;;
49688;SDS011;70518;51.400;7.428;2023-07-29T09:03:22;0.95;;;0.40;;
49688;SDS011;70518;51.400;7.428;2023-07-29T09:05:47;1.70;;;0.40;;
49688;SDS011;70518;51.400;7.428;2023-07-29T09:08:13;1.10;;;0.40;;
49688;SDS011;70518;51.400;7.428;2023-07-29T09:10:39;0.93;;;0.47;;
49688;SDS011;70518;51.400;7.428;2023-07-29T09:13:05;1.70;;;0.60;;
49688;SDS011;70518;51.400;7.428;2023-07-29T09:15:31;1.05;;;0.40;;
49688;SDS011;70518;51.400;7.428;2023-07-29T09:17:58;1.65;;;0.50;;
49688;SDS011;70518;51.400;7.428;2023-07-29T09:20:27;5.53;;;0.50;;
49688;SDS011;70518;51.400;7.428;2023-07-29T09:22:54;1.17;;;0.40;;
49688;SDS011;70518;51.400;7.428;2023-07-29T09:25:26;2.20;;;0.65;;
49688;SDS011;70518;51.400;7.428;2023-07-29T09:27:52;0.85;;;0.50;;
49688;SDS011;70518;51.400;7.428;2023-07-29T09:30:23;0.80;;;0.30;;
49688;SDS011;70518;51.400;7.428;2023-07-29T09:32:52;1.05;;;0.30;;
49688;SDS011;70518;51.400;7.428;2023-07-29T09:35:20;0.50;;;0.20;;
49688;SDS011;70518;51.400;7.428;2023-07-29T09:37:45;0.60;;;0.20;;
49688;SDS011;70518;51.400;7.428;2023-07-29T09:40:13;0.50;;;0.30;;
49688;SDS011;70518;51.400;7.428;2023-07-29T09:42:40;2.85;;;0.30;;
49688;SDS011;70518;51.400;7.428;2023-07-29T09:45:14;0.90;;;0.40;;
49688;SDS011;70518;51.400;7.428;2023-07-29T09:47:53;0.50;;;0.30;;
49688;SDS011;70518;51.400;7.428;2023-07-29T09:50:23;0.60;;;0.30;;
49688;SDS011;70518;51.400;7.428;2023-07-29T09:52:49;0.52;;;0.30;;
49688;SDS011;70518;51.400;7.428;2023-07-29T09:55:19;1.25;;;0.40;;
49688;SDS011;70518;51.400;7.428;2023-07-29T09:57:46;0.40;;;0.30;;
49688;SDS011;70518;51.400;7.428;2023-07-29T10:00:12;1.08;;;0.30;;
49688;SDS011;70518;51.400;7.428;2023-07-29T10:02:41;0.95;;;0.30;;
49688;SDS011;70518;51.400;7.428;2023-07-29T10:05:08;1.40;;;0.30;;
49688;SDS011;70518;51.400;7.428;2023-07-29T10:07:36;0.35;;;0.30;;
49688;SDS011;70518;51.400;7.428;2023-07-29T10:10:06;1.17;;;0.47;;
49688;SDS011;70518;51.400;7.428;2023-07-29T10:12:33;1.13;;;0.30;;
49688;SDS011;70518;51.400;7.428;2023-07-29T10:15:01;1.25;;;0.30;;
49688;SDS011;70518;51.400;7.428;2023-07-29T10:17:29;1.23;;;0.20;;
49688;SDS011;70518;51.400;7.428;2023-07-29T10:19:55;0.52;;;0.30;;
49688;SDS011;70518;51.400;7.428;2023-07-29T10:22:22;0.50;;;0.30;;
49688;SDS011;70518;51.400;7.428;2023-07-29T10:24:53;0.70;;;0.30;;
49688;SDS011;70518;51.400;7.428;2023-07-29T10:27:21;0.50;;;0.50;;
49688;SDS011;70518;51.400;7.428;2023-07-29T10:29:49;0.65;;;0.22;;
49688;SDS011;70518;51.400;7.428;2023-07-29T10:32:15;2.05;;;0.30;;
49688;SDS011;70518;51.400;7.428;2023-07-29T10:34:41;1.25;;;0.35;;
49688;SDS011;70518;51.400;7.428;2023-07-29T10:37:07;1.45;;;0.30;;
49688;SDS011;70518;51.400;7.428;2023-07-29T10:39:39;0.35;;;0.20;;
49688;SDS011;70518;51.400;7.428;2023-07-29T10:42:07;1.13;;;0.30;;
49688;SDS011;70518;51.400;7.428;2023-07-29T10:47:13;0.95;;;0.40;;
49688;SDS011;70518;51.400;7.428;2023-07-29T10:49:43;1.15;;;0.68;;
49688;SDS011;70518;51.400;7.428;2023-07-29T10:52:12;1.58;;;0.30;;
49688;SDS011;70518;51.400;7.428;2023-07-29T10:54:44;0.65;;;0.30;;
49688;SDS011;70518;51.400;7.428;2023-07-29T10:57:14;0.70;;;0.30;;
49688;SDS011;70518;51.400;7.428;2023-07-29T10:59:41;0.93;;;0.32;;
49688;SDS011;70518;51.400;7.428;2023-07-29T11:02:18;1.42;;;0.30;;
49688;SDS011;70518;51.400;7.428;2023-07-29T11:04:50;1.15;;;0.45;;
49688;SDS011;70518;51.400;7.428;2023-07-29T11:07:22;0.75;;;0.35;;
49688;SDS011;70518;51.400;7.428;2023-07-29T11:09:58;0.60;;;0.30;;
49688;SDS011;70518;51.400;7.428;2023-07-29T11:17:37;1.00;;;0.30;;
49688;SDS011;70518;51.400;7.428;2023-07-29T11:20:04;0.93;;;0.35;;
49688;SDS011;70518;51.400;7.428;2023-07-29T11:22:32;2.05;;;0.30;;
49688;SDS011;70518;51.400;7.428;2023-07-29T11:24:58;0.63;;;0.20;;
49688;SDS011;70518;51.400;7.428;2023-07-29T11:27:24;0.65;;;0.30;;
49688;SDS011;70518;51.400;7.428;2023-07-29T11:29:49;0.75;;;0.22;;
49688;SDS011;70518;51.400;7.428;2023-07-29T11:32:15;1.05;;;0.20;;
49688;SDS011;70518;51.400;7.428;2023-07-29T11:34:41;0.60;;;0.20;;
49688;SDS011;70518;51.400;7.428;2023-07-29T11:37:06;0.60;;;0.40;;
49688;SDS011;70518;51.400;7.428;2023-07-29T11:39:33;1.85;;;0.40;;
49688;SDS011;70518;51.400;7.428;2023-07-29T11:42:04;0.50;;;0.30;;
49688;SDS011;70518;51.400;7.428;2023-07-29T11:44:30;1.70;;;0.30;;
49688;SDS011;70518;51.400;7.428;2023-07-29T11:46:56;1.48;;;0.30;;
49688;SDS011;70518;51.400;7.428;2023-07-29T11:49:21;0.60;;;0.30;;
49688;SDS011;70518;51.400;7.428;2023-07-29T11:51:46;1.25;;;0.30;;
49688;SDS011;70518;51.400;7.428;2023-07-29T11:54:11;0.30;;;0.20;;
49688;SDS011;70518;51.400;7.428;2023-07-29T11:56:37;2.13;;;0.30;;
49688;SDS011;70518;51.400;7.428;2023-07-29T11:59:02;0.60;;;0.30;;
49688;SDS011;70518;51.400;7.428;2023-07-29T12:01:28;0.95;;;0.40;;
49688;SDS011;70518;51.400;7.428;2023-07-29T12:03:54;0.88;;;0.40;;
49688;SDS011;70518;51.400;7.428;2023-07-29T12:06:21;1.38;;;0.30;;
49688;SDS011;70518;51.400;7.428;2023-07-29T12:08:47;2.25;;;0.40;;
49688;SDS011;70518;51.400;7.428;2023-07-29T12:11:13;2.53;;;0.30;;
49688;SDS011;70518;51.400;7.428;2023-07-29T12:13:39;0.77;;;0.40;;
49688;SDS011;70518;51.400;7.428;2023-07-29T12:16:06;0.65;;;0.30;;
49688;SDS011;70518;51.400;7.428;2023-07-29T12:18:32;0.30;;;0.20;;
49688;SDS011;70518;51.400;7.428;2023-07-29T12:20:58;0.70;;;0.30;;
49688;SDS011;70518;51.400;7.428;2023-07-29T12:23:24;0.50;;;0.30;;
49688;SDS011;70518;51.400;7.428;2023-07-29T12:25:51;0.82;;;0.40;;
49688;SDS011;70518;51.400;7.428;2023-07-29T12:28:22;0.70;;;0.35;;
49688;SDS011;70518;51.400;7.428;2023-07-29T12:30:47;1.65;;;0.40;;
49688;SDS011;70518;51.400;7.428;2023-07-29T12:33:28;0.77;;;0.40;;
49688;SDS011;70518;51.400;7.428;2023-07-29T12:35:58;0.75;;;0.30;;
49688;SDS011;70518;51.400;7.428;2023-07-29T12:38:25;1.05;;;0.40;;
49688;SDS011;70518;51.400;7.428;2023-07-29T12:40:51;2.75;;;0.40;;
49688;SDS011;70518;51.400;7.428;2023-07-29T12:43:16;0.88;;;0.38;;
49688;SDS011;70518;51.400;7.428;2023-07-29T12:45:41;1.52;;;0.32;;
49688;SDS011;70518;51.400;7.428;2023-07-29T12:48:10;3.03;;;0.40;;
49688;SDS011;70518;51.400;7.428;2023-07-29T12:50:36;0.70;;;0.40;;
49688;SDS011;70518;51.400;7.428;2023-07-29T12:53:02;1.55;;;0.50;;
49688;SDS011;70518;51.400;7.428;2023-07-29T12:55:29;1.02;;;0.40;;
49688;SDS011;70518;51.400;7.428;2023-07-29T12:57:54;1.25;;;0.40;;
49688;SDS011;70518;51.400;7.428;2023-07-29T13:00:20;0.50;;;0.40;;
49688;SDS011;70518;51.400;7.428;2023-07-29T13:02:45;0.80;;;0.40;;
49688;SDS011;70518;51.400;7.428;2023-07-29T13:05:10;0.63;;;0.30;;
49688;SDS011;70518;51.400;7.428;2023-07-29T13:07:40;0.50;;;0.40;;
49688;SDS011;70518;51.400;7.428;2023-07-29T13:10:06;0.70;;;0.32;;
49688;SDS011;70518;51.400;7.428;2023-07-29T13:12:32;1.75;;;0.32;;
49688;SDS011;70518;51.400;7.428;2023-07-29T13:14:57;0.70;;;0.40;;
49688;SDS011;70518;51.400;7.428;2023-07-29T13:17:23;0.70;;;0.32;;
49688;SDS011;70518;51.400;7.428;2023-07-29T13:19:48;1.13;;;0.40;;
49688;SDS011;70518;51.400;7.428;2023-07-29T13:22:14;1.58;;;0.47;;
49688;SDS011;70518;51.400;7.428;2023-07-29T13:24:39;0.73;;;0.40;;
49688;SDS011;70518;51.400;7.428;2023-07-29T13:27:04;0.80;;;0.45;;
49688;SDS011;70518;51.400;7.428;2023-07-29T13:29:30;0.90;;;0.50;;
49688;SDS011;70518;51.400;7.428;2023-07-29T13:31:55;0.50;;;0.43;;
49688;SDS011;70518;51.400;7.428;2023-07-29T13:34:20;0.68;;;0.40;;
49688;SDS011;70518;51.400;7.428;2023-07-29T13:36:45;0.90;;;0.45;;
49688;SDS011;70518;51.400;7.428;2023-07-29T13:39:11;0.80;;;0.40;;
49688;SDS011;70518;51.400;7.428;2023-07-29T13:41:36;5.93;;;0.50;;
49688;SDS011;70518;51.400;7.428;2023-07-29T13:44:01;0.60;;;0.50;;
49688;SDS011;70518;51.400;7.428;2023-07-29T13:46:27;1.58;;;0.50;;
49688;SDS011;70518;51.400;7.428;2023-07-29T13:48:52;3.33;;;0.50;;
49688;SDS011;70518;51.400;7.428;2023-07-29T13:51:17;2.40;;;0.50;;
49688;SDS011;70518;51.400;7.428;2023-07-29T13:53:44;0.85;;;0.50;;
49688;SDS011;70518;51.400;7.428;2023-07-29T13:56:09;0.80;;;0.40;;
49688;SDS011;70518;51.400;7.428;2023-07-29T13:58:34;0.55;;;0.40;;
49688;SDS011;70518;51.400;7.428;2023-07-29T14:00:59;0.70;;;0.50;;
49688;SDS011;70518;51.400;7.428;2023-07-29T14:03:25;1.08;;;0.60;;
49688;SDS011;70518;51.400;7.428;2023-07-29T14:05:50;0.75;;;0.45;;
49688;SDS011;70518;51.400;7.428;2023-07-29T14:08:15;0.57;;;0.40;;
49688;SDS011;70518;51.400;7.428;2023-07-29T14:10:41;0.57;;;0.40;;
49688;SDS011;70518;51.400;7.428;2023-07-29T14:13:06;0.93;;;0.50;;
49688;SDS011;70518;51.400;7.428;2023-07-29T14:15:31;2.97;;;0.50;;
49688;SDS011;70518;51.400;7.428;2023-07-29T14:17:57;0.65;;;0.50;;
49688;SDS011;70518;51.400;7.428;2023-07-29T14:20:23;0.88;;;0.50;;
49688;SDS011;70518;51.400;7.428;2023-07-29T14:22:48;1.30;;;0.50;;
49688;SDS011;70518;51.400;7.428;2023-07-29T14:25:14;1.35;;;0.60;;
49688;SDS011;70518;51.400;7.428;2023-07-29T14:27:39;1.15;;;0.50;;
49688;SDS011;70518;51.400;7.428;2023-07-29T14:30:05;1.17;;;0.50;;
49688;SDS011;70518;51.400;7.428;2023-07-29T14:32:31;1.33;;;0.40;;
49688;SDS011;70518;51.400;7.428;2023-07-29T14:34:56;1.38;;;0.50;;
49688;SDS011;70518;51.400;7.428;2023-07-29T14:37:21;0.90;;;0.40;;
49688;SDS011;70518;51.400;7.428;2023-07-29T14:39:47;0.80;;;0.40;;
49688;SDS011;70518;51.400;7.428;2023-07-29T14:42:12;0.95;;;0.40;;
49688;SDS011;70518;51.400;7.428;2023-07-29T14:44:39;1.20;;;0.50;;
49688;SDS011;70518;51.400;7.428;2023-07-29T14:47:05;1.10;;;0.50;;
49688;SDS011;70518;51.400;7.428;2023-07-29T14:49:30;1.10;;;0.50;;
49688;SDS011;70518;51.400;7.428;2023-07-29T14:51:56;0.88;;;0.50;;
49688;SDS011;70518;51.400;7.428;2023-07-29T14:54:21;0.82;;;0.40;;